createdAt,value
2023-02-25T00:01:36.918Z,100658.88
2023-02-25T00:04:04.270Z,100657.03
2023-02-25T00:06:31.562Z,100658.47
2023-02-25T00:08:59.190Z,100658.19
2023-02-25T00:11:27.606Z,100655.78
2023-02-25T00:13:55.521Z,100660.91
2023-02-25T00:16:24.752Z,100673.31
2023-02-25T00:18:56.694Z,100676.91
2023-02-25T00:21:25.420Z,100667.22
2023-02-25T00:24:00.098Z,100669.66
2023-02-25T00:26:32.012Z,100669.94
2023-02-25T00:28:59.623Z,100666.13
2023-02-25T00:31:27.675Z,100667.47
2023-02-25T00:33:55.267Z,100668.72
2023-02-25T00:36:25.660Z,100680.34
2023-02-25T00:38:55.325Z,100676.88
2023-02-25T00:41:27.048Z,100679.50
2023-02-25T00:43:57.234Z,100672.78
2023-02-25T00:46:25.788Z,100680.50
2023-02-25T00:48:53.664Z,100681.19
2023-02-25T00:51:24.241Z,100682.47
2023-02-25T00:53:52.860Z,100685.28
2023-02-25T00:56:20.788Z,100679.47
2023-02-25T00:58:50.473Z,100686.34
2023-02-25T01:01:20.259Z,100681.34
2023-02-25T01:03:49.557Z,100685.03
2023-02-25T01:06:17.346Z,100674.66
2023-02-25T01:08:45.520Z,100677.78
2023-02-25T01:11:15.801Z,100678.59
2023-02-25T01:13:44.094Z,100678.91
2023-02-25T01:16:17.088Z,100679.53
2023-02-25T01:18:46.437Z,100679.03
2023-02-25T01:21:21.479Z,100676.97
2023-02-25T01:23:58.821Z,100679.84
2023-02-25T01:26:28.036Z,100684.94
2023-02-25T01:28:56.050Z,100685.47
2023-02-25T01:31:29.531Z,100676.97
2023-02-25T01:33:59.027Z,100682.69
2023-02-25T01:36:27.522Z,100681.63
2023-02-25T01:38:56.492Z,100685.03
2023-02-25T01:41:25.307Z,100682.16
2023-02-25T01:44:10.761Z,100676.16
2023-02-25T01:46:39.876Z,100675.19
2023-02-25T01:49:19.115Z,100665.78
2023-02-25T01:51:50.701Z,100666.50
2023-02-25T01:54:19.846Z,100656.25
2023-02-25T01:56:53.844Z,100660.09
2023-02-25T01:59:24.134Z,100666.13
2023-02-25T02:01:52.314Z,100657.13
2023-02-25T02:04:20.661Z,100654.84
2023-02-25T02:06:50.056Z,100654.81
2023-02-25T02:09:24.124Z,100647.41
2023-02-25T02:11:51.767Z,100645.69
2023-02-25T02:14:28.914Z,100638.66
2023-02-25T02:17:06.124Z,100648.88
2023-02-25T02:19:39.679Z,100645.41
2023-02-25T02:22:24.391Z,100645.13
2023-02-25T02:24:54.978Z,100640.56
2023-02-25T02:27:43.986Z,100641.00
2023-02-25T02:30:47.907Z,100646.25
2023-02-25T02:33:53.373Z,100641.00
2023-02-25T02:36:38.708Z,100643.97
2023-02-25T02:39:21.227Z,100643.75
2023-02-25T02:42:04.482Z,100645.34
2023-02-25T02:44:43.674Z,100647.47
2023-02-25T02:47:18.933Z,100648.41
2023-02-25T02:49:56.551Z,100644.06
2023-02-25T02:52:29.398Z,100648.34
2023-02-25T02:55:07.863Z,100642.25
2023-02-25T02:57:38.496Z,100636.19
2023-02-25T03:00:18.083Z,100639.28
2023-02-25T03:03:10.641Z,100627.34
2023-02-25T03:05:41.600Z,100632.59
2023-02-25T03:08:25.118Z,100627.34
2023-02-25T03:10:52.905Z,100642.97
2023-02-25T03:13:22.271Z,100649.13
2023-02-25T03:15:52.010Z,100655.09
2023-02-25T03:18:36.145Z,100647.84
2023-02-25T03:21:13.192Z,100647.94
2023-02-25T03:23:43.279Z,100653.19
2023-02-25T03:26:30.246Z,100650.84
2023-02-25T03:29:02.334Z,100658.78
2023-02-25T03:31:36.776Z,100665.41
2023-02-25T03:34:17.821Z,100669.06
2023-02-25T03:36:52.278Z,100663.53
2023-02-25T03:39:25.014Z,100666.09
2023-02-25T03:42:01.834Z,100672.97
2023-02-25T03:44:34.936Z,100663.28
2023-02-25T03:47:04.817Z,100665.81
2023-02-25T03:49:46.583Z,100672.13
2023-02-25T03:52:20.769Z,100662.41
2023-02-25T03:54:55.305Z,100669.59
2023-02-25T03:57:27.612Z,100668.66
2023-02-25T03:59:56.587Z,100669.47
2023-02-25T04:02:33.035Z,100665.22
2023-02-25T04:05:00.848Z,100658.22
2023-02-25T04:07:28.652Z,100660.78
2023-02-25T04:09:56.275Z,100666.97
2023-02-25T04:12:23.613Z,100647.84
2023-02-25T04:14:50.979Z,100658.97
2023-02-25T04:17:19.418Z,100659.31
2023-02-25T04:19:46.926Z,100657.69
2023-02-25T04:22:14.215Z,100668.16
2023-02-25T04:24:41.589Z,100667.09
2023-02-25T04:27:09.186Z,100665.28
2023-02-25T04:29:36.702Z,100679.19
2023-02-25T04:32:05.358Z,100680.91
2023-02-25T04:34:32.869Z,100668.72
2023-02-25T04:37:02.389Z,100668.75
2023-02-25T04:39:29.743Z,100672.34
2023-02-25T04:41:57.294Z,100671.41
2023-02-25T04:44:25.136Z,100678.50
2023-02-25T04:46:52.698Z,100674.25
2023-02-25T04:49:21.090Z,100675.88
2023-02-25T04:51:51.592Z,100676.84
2023-02-25T04:54:20.670Z,100677.75
2023-02-25T04:56:49.050Z,100680.41
2023-02-25T04:59:16.953Z,100679.41
2023-02-25T05:01:44.522Z,100675.19
2023-02-25T05:04:12.155Z,100683.00
2023-02-25T05:06:39.676Z,100681.31
2023-02-25T05:09:09.367Z,100674.75
2023-02-25T05:11:37.824Z,100676.78
2023-02-25T05:14:05.061Z,100676.59
2023-02-25T05:16:32.264Z,100684.56
2023-02-25T05:18:59.501Z,100681.00
2023-02-25T05:21:27.004Z,100684.50
2023-02-25T05:23:54.469Z,100683.59
2023-02-25T05:26:24.786Z,100687.91
2023-02-25T05:28:55.105Z,100685.38
2023-02-25T05:31:24.913Z,100687.91
2023-02-25T05:33:53.353Z,100694.13
2023-02-25T05:36:21.180Z,100693.00
2023-02-25T05:38:49.310Z,100695.81
2023-02-25T05:41:16.782Z,100686.44
2023-02-25T05:43:45.949Z,100692.59
2023-02-25T05:46:14.169Z,100690.91
2023-02-25T05:48:46.766Z,100693.41
2023-02-25T05:51:20.507Z,100693.31
2023-02-25T05:53:49.330Z,100690.69
2023-02-25T05:56:25.750Z,100689.91
2023-02-25T05:58:55.035Z,100697.69
2023-02-25T06:01:27.720Z,100696.94
2023-02-25T06:03:58.858Z,100694.59
2023-02-25T06:06:29.971Z,100703.91
2023-02-25T06:08:58.211Z,100700.25
2023-02-25T06:11:28.574Z,100695.22
2023-02-25T06:13:57.558Z,100702.06
2023-02-25T06:16:26.057Z,100703.16
2023-02-25T06:18:53.909Z,100709.22
2023-02-25T06:21:21.211Z,100707.16
2023-02-25T06:23:50.453Z,100702.38
2023-02-25T06:26:18.337Z,100711.59
2023-02-25T06:28:45.965Z,100716.19
2023-02-25T06:31:16.433Z,100716.91
2023-02-25T06:33:45.762Z,100713.16
2023-02-25T06:36:13.903Z,100712.97
2023-02-25T06:38:41.518Z,100718.94
2023-02-25T06:41:20.854Z,100713.78
2023-02-25T06:43:52.289Z,100725.16
2023-02-25T06:46:23.287Z,100726.63
2023-02-25T06:48:51.076Z,100723.00
2023-02-25T06:51:18.343Z,100728.25
2023-02-25T06:53:47.823Z,100720.34
2023-02-25T06:56:16.321Z,100722.88
2023-02-25T06:58:44.021Z,100732.56
2023-02-25T07:01:14.490Z,100734.91
2023-02-25T07:03:46.409Z,100733.91
2023-02-25T07:06:18.144Z,100734.06
2023-02-25T07:08:46.496Z,100729.53
2023-02-25T07:11:19.855Z,100751.47
2023-02-25T07:13:48.529Z,100747.88
2023-02-25T07:16:17.139Z,100744.28
2023-02-25T07:18:45.236Z,100743.59
2023-02-25T07:21:13.858Z,100749.59
2023-02-25T07:23:42.725Z,100743.47
2023-02-25T07:26:12.486Z,100749.31
2023-02-25T07:28:40.712Z,100748.28
2023-02-25T07:31:14.456Z,100751.13
2023-02-25T07:33:41.991Z,100759.09
2023-02-25T07:36:09.808Z,100757.22
2023-02-25T07:38:38.741Z,100764.09
2023-02-25T07:41:12.090Z,100760.84
2023-02-25T07:43:45.439Z,100763.16
2023-02-25T07:46:13.476Z,100766.75
2023-02-25T07:48:41.109Z,100765.94
2023-02-25T07:51:15.814Z,100771.91
2023-02-25T07:53:43.604Z,100766.84
2023-02-25T07:56:11.427Z,100767.66
2023-02-25T07:58:40.101Z,100764.44
2023-02-25T08:01:13.131Z,100772.19
2023-02-25T08:03:40.649Z,100773.94
2023-02-25T08:06:09.033Z,100775.03
2023-02-25T08:08:37.287Z,100776.75
2023-02-25T08:11:06.540Z,100779.97
2023-02-25T08:13:34.470Z,100781.97
2023-02-25T08:16:11.654Z,100787.47
2023-02-25T08:18:41.133Z,100786.44
2023-02-25T08:21:12.270Z,100804.22
2023-02-25T08:23:39.832Z,100797.31
2023-02-25T08:26:09.871Z,100800.91
2023-02-25T08:28:37.707Z,100804.31
2023-02-25T08:31:08.290Z,100794.88
2023-02-25T08:33:35.904Z,100799.84
2023-02-25T08:36:09.743Z,100804.31
2023-02-25T08:38:38.436Z,100815.34
2023-02-25T08:41:07.563Z,100822.47
2023-02-25T08:43:35.918Z,100831.50
2023-02-25T08:46:04.751Z,100811.38
2023-02-25T08:48:32.831Z,100823.13
2023-02-25T08:51:08.846Z,100819.34
2023-02-25T08:53:38.943Z,100824.06
2023-02-25T08:56:11.795Z,100827.47
2023-02-25T08:58:40.654Z,100819.88
2023-02-25T09:01:13.971Z,100820.59
2023-02-25T09:03:52.722Z,100807.84
2023-02-25T09:06:23.556Z,100816.88
2023-02-25T09:08:52.680Z,100807.81
2023-02-25T09:11:21.997Z,100809.94
2023-02-25T09:13:49.631Z,100819.78
2023-02-25T09:16:17.686Z,100807.53
2023-02-25T09:18:46.465Z,100811.97
2023-02-25T09:21:14.606Z,100828.94
2023-02-25T09:23:42.771Z,100813.31
2023-02-25T09:26:10.740Z,100809.81
2023-02-25T09:28:38.208Z,100814.47
2023-02-25T09:31:05.845Z,100806.25
2023-02-25T09:33:36.010Z,100810.84
2023-02-25T09:36:08.938Z,100806.06
2023-02-25T09:38:38.290Z,100812.66
2023-02-25T09:41:36.158Z,100813.19
2023-02-25T09:44:15.710Z,100811.50
2023-02-25T09:46:52.613Z,100821.50
2023-02-25T09:49:32.462Z,100826.81
2023-02-25T09:52:07.897Z,100817.31
2023-02-25T09:54:45.016Z,100828.94
2023-02-25T09:57:19.783Z,100847.63
2023-02-25T09:59:49.000Z,100828.72
2023-02-25T10:02:29.776Z,100844.56
2023-02-25T10:05:39.313Z,100810.38
2023-02-25T10:08:09.565Z,100830.28
2023-02-25T10:10:58.918Z,100819.06
2023-02-25T10:13:40.608Z,100827.47
2023-02-25T10:16:28.783Z,100827.56
2023-02-25T10:19:15.824Z,100825.56
2023-02-25T10:21:46.176Z,100814.13
2023-02-25T10:24:34.905Z,100825.31
2023-02-25T10:27:27.977Z,100816.34
2023-02-25T10:30:11.312Z,100824.03
2023-02-25T10:32:41.785Z,100822.84
2023-02-25T10:35:17.694Z,100823.16
2023-02-25T10:37:45.484Z,100838.09
2023-02-25T10:40:19.888Z,100823.47
2023-02-25T10:42:50.682Z,100838.72
2023-02-25T10:45:26.454Z,100827.94
2023-02-25T10:48:11.896Z,100836.59
2023-02-25T10:50:45.983Z,100829.09
2023-02-25T10:53:16.511Z,100840.69
2023-02-25T10:55:43.970Z,100833.97
2023-02-25T10:58:34.601Z,100859.72
2023-02-25T11:01:28.552Z,100812.94
2023-02-25T11:03:59.048Z,100813.50
2023-02-25T11:06:28.768Z,100806.16
2023-02-25T11:09:00.340Z,100818.19
2023-02-25T11:11:33.657Z,100813.50
2023-02-25T11:14:13.493Z,100808.78
2023-02-25T11:16:43.638Z,100807.16
2023-02-25T11:19:23.606Z,100812.09
2023-02-25T11:21:52.067Z,100818.75
2023-02-25T11:24:31.450Z,100821.44
2023-02-25T11:27:00.665Z,100813.56
2023-02-25T11:29:35.236Z,100818.69
2023-02-25T11:32:09.163Z,100803.56
2023-02-25T11:34:59.958Z,100827.69
2023-02-25T11:37:27.944Z,100812.91
2023-02-25T11:39:56.278Z,100817.25
2023-02-25T11:42:26.834Z,100812.47
2023-02-25T11:45:02.663Z,100816.06
2023-02-25T11:47:33.338Z,100812.47
2023-02-25T11:50:21.681Z,100811.47
2023-02-25T11:53:42.609Z,100810.47
2023-02-25T11:56:23.650Z,100810.94
2023-02-25T11:59:37.283Z,100804.19
2023-02-25T12:02:33.709Z,100780.91
2023-02-25T12:05:41.496Z,100783.69
2023-02-25T12:08:47.449Z,100804.69
2023-02-25T12:11:33.471Z,100788.03
2023-02-25T12:14:22.853Z,100789.13
2023-02-25T12:17:08.316Z,100779.81
2023-02-25T12:20:04.983Z,100784.59
2023-02-25T12:22:50.813Z,100779.41
2023-02-25T12:25:31.942Z,100789.88
2023-02-25T12:28:09.098Z,100777.94
2023-02-25T12:31:01.833Z,100785.13
2023-02-25T12:33:50.579Z,100781.47
2023-02-25T12:36:24.123Z,100786.34
2023-02-25T12:39:07.368Z,100777.09
2023-02-25T12:41:48.344Z,100773.25
2023-02-25T12:44:53.920Z,100791.50
2023-02-25T12:47:57.755Z,100782.06
2023-02-25T12:50:54.346Z,100779.66
2023-02-25T12:53:40.464Z,100797.03
2023-02-25T12:56:35.956Z,100780.44
2023-02-25T12:59:03.493Z,100784.00
2023-02-25T13:01:48.732Z,100761.69
2023-02-25T13:04:40.452Z,100769.28
2023-02-25T13:07:20.167Z,100772.50
2023-02-25T13:13:23.839Z,100768.66
2023-02-25T13:16:15.336Z,100777.34
2023-02-25T13:19:05.880Z,100767.03
2023-02-25T13:21:45.149Z,100766.69
2023-02-25T13:24:29.448Z,100772.78
2023-02-25T13:27:13.948Z,100762.31
2023-02-25T13:29:56.361Z,100765.19
2023-02-25T13:32:27.431Z,100774.66
2023-02-25T13:35:13.972Z,100761.56
2023-02-25T13:37:59.190Z,100758.09
2023-02-25T13:40:35.840Z,100759.25
2023-02-25T13:43:29.400Z,100781.84
2023-02-25T13:46:08.316Z,100753.22
2023-02-25T13:48:54.476Z,100756.81
2023-02-25T13:51:53.061Z,100760.47
2023-02-25T13:54:37.226Z,100749.03
2023-02-25T13:57:27.739Z,100755.69
2023-02-25T14:00:04.577Z,100754.94
2023-02-25T14:03:17.448Z,100771.53
2023-02-25T14:05:50.761Z,100753.31
2023-02-25T14:08:39.921Z,100762.84
2023-02-25T14:11:29.948Z,100758.59
2023-02-25T14:13:57.413Z,100756.94
2023-02-25T14:16:41.123Z,100754.13
2023-02-25T14:19:17.546Z,100751.47
2023-02-25T14:22:09.620Z,100743.53
2023-02-25T14:24:49.311Z,100749.84
2023-02-25T14:27:45.555Z,100744.03
2023-02-25T14:30:22.083Z,100758.25
2023-02-25T14:33:09.340Z,100748.69
2023-02-25T14:36:02.831Z,100743.31
2023-02-25T14:39:21.849Z,100745.03
2023-02-25T14:42:08.246Z,100759.75
2023-02-25T14:44:45.319Z,100755.06
2023-02-25T14:47:38.996Z,100753.38
2023-02-25T14:50:18.657Z,100784.38
2023-02-25T14:53:20.476Z,100765.06
2023-02-25T14:56:02.936Z,100761.56
2023-02-25T14:59:17.568Z,100773.72
2023-02-25T15:02:09.824Z,100771.09
2023-02-25T15:04:55.864Z,100780.50
2023-02-25T15:07:26.397Z,100783.09
2023-02-25T15:10:31.622Z,100790.09
2023-02-25T15:13:08.160Z,100780.50
2023-02-25T15:16:06.598Z,100792.59
2023-02-25T15:19:12.400Z,100786.44
2023-02-25T15:21:44.130Z,100801.16
2023-02-25T15:24:39.351Z,100816.72
2023-02-25T15:27:33.921Z,100807.00
2023-02-25T15:30:47.975Z,100814.88
2023-02-25T15:33:39.608Z,100814.00
2023-02-25T15:36:16.299Z,100815.72
2023-02-25T15:38:45.766Z,100819.97
2023-02-25T15:41:42.338Z,100827.06
2023-02-25T15:44:12.656Z,100817.38
2023-02-25T15:46:46.007Z,100824.09
2023-02-25T15:49:25.689Z,100827.50
2023-02-25T15:51:56.483Z,100824.66
2023-02-25T15:54:30.894Z,100830.00
2023-02-25T15:57:10.316Z,100839.34
2023-02-25T15:59:49.415Z,100835.75
2023-02-25T16:02:29.158Z,100840.13
2023-02-25T16:05:08.644Z,100834.66
2023-02-25T16:07:39.933Z,100840.81
2023-02-25T16:10:18.853Z,100840.00
2023-02-25T16:12:50.435Z,100840.84
2023-02-25T16:15:25.749Z,100847.81
2023-02-25T16:17:56.672Z,100845.03
2023-02-25T16:20:33.877Z,100845.97
2023-02-25T16:23:01.470Z,100850.13
2023-02-25T16:25:45.435Z,100851.13
2023-02-25T16:28:43.355Z,100853.91
2023-02-25T16:31:27.668Z,100861.63
2023-02-25T16:34:35.952Z,100865.06
2023-02-25T16:37:25.929Z,100873.16
2023-02-25T16:39:54.104Z,100871.44
2023-02-25T16:42:22.171Z,100873.94
2023-02-25T16:45:08.880Z,100873.13
2023-02-25T16:47:38.241Z,100882.16
2023-02-25T16:50:13.634Z,100877.69
2023-02-25T16:52:47.973Z,100882.72
2023-02-25T16:55:29.554Z,100874.88
2023-02-25T16:58:15.441Z,100885.31
2023-02-25T17:00:57.624Z,100890.47
2023-02-25T17:03:31.039Z,100888.72
2023-02-25T17:06:20.277Z,100887.66
2023-02-25T17:08:50.430Z,100902.31
2023-02-25T17:11:24.208Z,100901.75
2023-02-25T17:13:56.034Z,100899.06
2023-02-25T17:16:29.751Z,100909.41
2023-02-25T17:19:01.154Z,100906.63
2023-02-25T17:21:35.529Z,100904.59
2023-02-25T17:24:07.397Z,100917.72
2023-02-25T17:26:40.028Z,100912.63
2023-02-25T17:29:11.858Z,100907.50
2023-02-25T17:31:51.753Z,100910.91
2023-02-25T17:34:31.874Z,100917.91
2023-02-25T17:37:03.357Z,100919.50
2023-02-25T17:39:31.271Z,100924.66
2023-02-25T17:41:58.788Z,100920.88
2023-02-25T17:44:47.514Z,100925.16
2023-02-25T17:47:22.721Z,100919.13
2023-02-25T17:49:51.352Z,100925.19
2023-02-25T17:52:29.180Z,100940.75
2023-02-25T17:55:21.200Z,100922.47
2023-02-25T17:57:48.833Z,100935.44
2023-02-25T18:00:26.261Z,100934.50
2023-02-25T18:03:17.714Z,100930.69
2023-02-25T18:05:55.304Z,100938.69
2023-02-25T18:08:24.187Z,100941.09
2023-02-25T18:10:57.897Z,100942.13
2023-02-25T18:13:32.317Z,100945.69
2023-02-25T18:16:29.540Z,100949.31
2023-02-25T18:18:59.958Z,100946.63
2023-02-25T18:21:28.577Z,100964.41
2023-02-25T18:23:57.526Z,100966.06
2023-02-25T18:26:25.750Z,100976.56
2023-02-25T18:28:57.518Z,100977.44
2023-02-25T18:31:25.170Z,100975.72
2023-02-25T18:33:52.897Z,100984.13
2023-02-25T18:36:27.282Z,100991.03
2023-02-25T18:39:00.864Z,101000.44
2023-02-25T18:41:28.851Z,101001.31
2023-02-25T18:44:04.529Z,100995.97
2023-02-25T18:46:32.126Z,101000.03
2023-02-25T18:48:59.578Z,101008.59
2023-02-25T18:51:26.933Z,101009.22
2023-02-25T18:53:54.119Z,101014.25
2023-02-25T18:56:21.848Z,101008.22
2023-02-25T18:58:49.294Z,101008.91
2023-02-25T19:01:21.817Z,101007.94
2023-02-25T19:03:51.154Z,101022.31
2023-02-25T19:06:18.686Z,101014.00
2023-02-25T19:08:46.258Z,101018.63
2023-02-25T19:11:23.315Z,101023.69
2023-02-25T19:13:51.387Z,101019.19
2023-02-25T19:16:19.338Z,101020.28
2023-02-25T19:18:47.527Z,101018.13
2023-02-25T19:21:18.444Z,101023.50
2023-02-25T19:23:46.739Z,101021.47
2023-02-25T19:26:16.132Z,101018.16
2023-02-25T19:28:43.679Z,101023.50
2023-02-25T19:31:12.472Z,101019.84
2023-02-25T19:33:40.036Z,101023.75
2023-02-25T19:36:08.833Z,101028.53
2023-02-25T19:38:36.486Z,101034.75
2023-02-25T19:41:06.117Z,101028.41
2023-02-25T19:43:34.466Z,101028.91
2023-02-25T19:46:02.760Z,101041.84
2023-02-25T19:48:30.250Z,101037.44
2023-02-25T19:50:57.557Z,101038.19
2023-02-25T19:53:24.803Z,101046.19
2023-02-25T19:55:55.125Z,101042.41
2023-02-25T19:58:22.707Z,101044.72
2023-02-25T20:00:50.273Z,101049.38
2023-02-25T20:03:17.951Z,101053.59
2023-02-25T20:05:45.246Z,101053.47
2023-02-25T20:08:12.670Z,101048.44
2023-02-25T20:10:41.584Z,101062.81
2023-02-25T20:13:09.062Z,101054.44
2023-02-25T20:15:36.730Z,101061.06
2023-02-25T20:18:04.542Z,101060.47
2023-02-25T20:20:31.947Z,101056.88
2023-02-25T20:22:59.340Z,101064.81
2023-02-25T20:25:26.537Z,101071.53
2023-02-25T20:27:53.737Z,101068.16
2023-02-25T20:30:23.037Z,101067.44
2023-02-25T20:32:50.420Z,101065.53
2023-02-25T20:35:20.758Z,101076.78
2023-02-25T20:37:59.142Z,101066.53
2023-02-25T20:40:26.571Z,101065.91
2023-02-25T20:42:53.905Z,101068.38
2023-02-25T20:45:21.576Z,101066.41
2023-02-25T20:47:48.813Z,101072.81
2023-02-25T20:50:16.892Z,101074.13
2023-02-25T20:52:44.100Z,101073.25
2023-02-25T20:55:11.504Z,101082.66
2023-02-25T20:57:38.821Z,101079.06
2023-02-25T21:00:09.150Z,101089.38
2023-02-25T21:02:36.489Z,101085.06
2023-02-25T21:05:03.996Z,101096.88
2023-02-25T21:07:31.297Z,101098.19
2023-02-25T21:09:58.801Z,101103.28
2023-02-25T21:12:26.344Z,101092.97
2023-02-25T21:14:53.553Z,101090.53
2023-02-25T21:17:20.954Z,101115.03
2023-02-25T21:19:48.594Z,101097.78
2023-02-25T21:22:15.865Z,101106.31
2023-02-25T21:24:43.224Z,101103.44
2023-02-25T21:27:12.056Z,101109.56
2023-02-25T21:29:39.396Z,101113.19
2023-02-25T21:32:06.697Z,101111.41
2023-02-25T21:34:33.864Z,101112.97
2023-02-25T21:37:01.318Z,101118.31
2023-02-25T21:39:28.590Z,101124.63
2023-02-25T21:41:55.900Z,101139.19
2023-02-25T21:44:23.065Z,101127.34
2023-02-25T21:46:50.416Z,101134.06
2023-02-25T21:49:17.634Z,101135.81
2023-02-25T21:51:45.016Z,101133.22
2023-02-25T21:54:13.335Z,101133.03
2023-02-25T21:56:40.943Z,101135.03
2023-02-25T21:59:08.411Z,101138.56
2023-02-25T22:01:37.655Z,101141.03
2023-02-25T22:04:05.321Z,101135.91
2023-02-25T22:06:33.205Z,101145.09
2023-02-25T22:09:00.549Z,101148.03
2023-02-25T22:11:29.518Z,101147.13
2023-02-25T22:13:58.010Z,101147.13
2023-02-25T22:16:25.793Z,101154.88
2023-02-25T22:18:53.146Z,101144.09
2023-02-25T22:21:21.823Z,101150.50
2023-02-25T22:23:49.739Z,101147.75
2023-02-25T22:26:18.420Z,101139.09
2023-02-25T22:28:46.281Z,101142.47
2023-02-25T22:31:14.972Z,101143.25
2023-02-25T22:33:42.525Z,101146.50
2023-02-25T22:36:10.812Z,101140.44
2023-02-25T22:38:39.345Z,101142.34
2023-02-25T22:41:11.407Z,101153.34
2023-02-25T22:43:38.663Z,101151.47
2023-02-25T22:46:10.618Z,101162.63
2023-02-25T22:48:38.934Z,101157.28
2023-02-25T22:51:06.721Z,101148.56
2023-02-25T22:53:33.995Z,101156.06
2023-02-25T22:56:09.045Z,101162.63
2023-02-25T22:58:39.144Z,101159.72
2023-02-25T23:01:07.689Z,101164.41
2023-02-25T23:03:35.083Z,101159.50
2023-02-25T23:06:02.521Z,101167.38
2023-02-25T23:08:29.785Z,101159.34
2023-02-25T23:11:06.322Z,101164.06
2023-02-25T23:13:33.602Z,101170.78
2023-02-25T23:16:01.738Z,101163.13
2023-02-25T23:18:29.092Z,101160.59
2023-02-25T23:20:56.617Z,101160.84
2023-02-25T23:23:23.859Z,101153.53
2023-02-25T23:25:52.492Z,101167.06
2023-02-25T23:28:20.042Z,101157.59
2023-02-25T23:30:47.222Z,101165.97
2023-02-25T23:33:14.506Z,101170.56
2023-02-25T23:35:42.280Z,101166.41
2023-02-25T23:38:09.625Z,101168.28
2023-02-25T23:40:36.866Z,101164.25
2023-02-25T23:43:04.223Z,101163.00
2023-02-25T23:45:31.348Z,101165.47
2023-02-25T23:47:59.030Z,101167.81
2023-02-25T23:50:27.103Z,101162.63
2023-02-25T23:52:54.485Z,101177.28
2023-02-25T23:55:22.159Z,101171.03
2023-02-25T23:57:49.529Z,101185.63
